Black Diamond, Washington
Current Conditions -  °F | °C
As of 5:53 AM on Thursday 27 Nov 2014 (Local Time) from KRNT Reporting Station
Overcast Overcast  
Wind Chill: 56°   Ceiling: 3100
Heat Index: 56°   Visibility: 10mi
Dew Point: 48°   Wind: 10mph
Humidity: 75%   Direction: 160°SSE
Pressure: 29.84"   Gusts: NA
Location:  47.31°N, 122°W
Report Text: KRNT 271353Z AUTO 16009KT 10SM OVC031 13/09 A2984 RMK AO2 SLP109 T01330089
Loading
Personal Weather Stations






























Interactive Weather Map New forecast layout! Learn more

10-Day Weather Forecast

Advertisements
Track Severe Weather on mobile